sensor_id;sensor_type;location;lat;lon;timestamp;temperature;humidity
24226;DHT22;51462;51.422;5.514;2023-09-19T00:01:17;16.60;99.90
24226;DHT22;51462;51.422;5.514;2023-09-19T00:03:45;16.50;99.90
24226;DHT22;51462;51.422;5.514;2023-09-19T00:06:10;16.70;99.90
24226;DHT22;51462;51.422;5.514;2023-09-19T00:08:38;16.40;99.90
24226;DHT22;51462;51.422;5.514;2023-09-19T00:11:04;16.60;99.90
24226;DHT22;51462;51.422;5.514;2023-09-19T00:13:34;16.50;99.90
24226;DHT22;51462;51.422;5.514;2023-09-19T00:16:01;16.80;99.90
24226;DHT22;51462;51.422;5.514;2023-09-19T00:18:27;16.90;99.90
24226;DHT22;51462;51.422;5.514;2023-09-19T00:20:58;16.60;99.90
24226;DHT22;51462;51.422;5.514;2023-09-19T00:23:24;17.40;99.90
24226;DHT22;51462;51.422;5.514;2023-09-19T00:25:50;16.90;99.90
24226;DHT22;51462;51.422;5.514;2023-09-19T00:28:17;16.90;99.90
24226;DHT22;51462;51.422;5.514;2023-09-19T00:30:47;16.50;99.90
24226;DHT22;51462;51.422;5.514;2023-09-19T00:33:15;16.50;99.90
24226;DHT22;51462;51.422;5.514;2023-09-19T00:35:47;16.60;99.90
24226;DHT22;51462;51.422;5.514;2023-09-19T00:38:13;16.50;99.90
24226;DHT22;51462;51.422;5.514;2023-09-19T00:40:44;16.60;99.90
24226;DHT22;51462;51.422;5.514;2023-09-19T00:43:10;16.70;99.90
24226;DHT22;51462;51.422;5.514;2023-09-19T00:45:37;16.80;99.90
24226;DHT22;51462;51.422;5.514;2023-09-19T00:48:04;16.60;99.90
24226;DHT22;51462;51.422;5.514;2023-09-19T00:50:31;16.70;99.90
24226;DHT22;51462;51.422;5.514;2023-09-19T00:52:58;16.30;99.90
24226;DHT22;51462;51.422;5.514;2023-09-19T00:55:25;16.10;99.90
24226;DHT22;51462;51.422;5.514;2023-09-19T00:57:51;16.30;99.90
24226;DHT22;51462;51.422;5.514;2023-09-19T01:00:18;16.30;99.90
24226;DHT22;51462;51.422;5.514;2023-09-19T01:02:46;16.20;99.90
24226;DHT22;51462;51.422;5.514;2023-09-19T01:05:12;16.50;99.90
24226;DHT22;51462;51.422;5.514;2023-09-19T01:07:38;16.50;99.90
24226;DHT22;51462;51.422;5.514;2023-09-19T01:10:09;16.50;99.90
24226;DHT22;51462;51.422;5.514;2023-09-19T01:15:46;16.20;99.90
24226;DHT22;51462;51.422;5.514;2023-09-19T01:24:07;16.10;99.90
24226;DHT22;51462;51.422;5.514;2023-09-19T01:31:59;16.60;99.90
24226;DHT22;51462;51.422;5.514;2023-09-19T01:34:27;16.70;99.90
24226;DHT22;51462;51.422;5.514;2023-09-19T01:36:52;16.60;99.90
24226;DHT22;51462;51.422;5.514;2023-09-19T01:39:18;16.20;99.90
24226;DHT22;51462;51.422;5.514;2023-09-19T01:41:52;16.00;99.90
24226;DHT22;51462;51.422;5.514;2023-09-19T01:44:44;16.20;99.90
24226;DHT22;51462;51.422;5.514;2023-09-19T01:47:23;16.40;99.90
24226;DHT22;51462;51.422;5.514;2023-09-19T01:52:48;16.40;99.90
24226;DHT22;51462;51.422;5.514;2023-09-19T01:55:16;16.50;99.90
24226;DHT22;51462;51.422;5.514;2023-09-19T01:57:48;16.60;99.90
24226;DHT22;51462;51.422;5.514;2023-09-19T02:00:16;16.20;99.90
24226;DHT22;51462;51.422;5.514;2023-09-19T02:02:46;16.30;99.90
24226;DHT22;51462;51.422;5.514;2023-09-19T02:05:13;16.20;99.90
24226;DHT22;51462;51.422;5.514;2023-09-19T02:07:39;16.30;99.90
24226;DHT22;51462;51.422;5.514;2023-09-19T02:10:06;16.50;99.90
24226;DHT22;51462;51.422;5.514;2023-09-19T02:12:32;16.40;99.90
24226;DHT22;51462;51.422;5.514;2023-09-19T02:14:58;16.20;99.90
24226;DHT22;51462;51.422;5.514;2023-09-19T02:17:25;16.10;99.90
24226;DHT22;51462;51.422;5.514;2023-09-19T02:19:56;16.30;99.90
24226;DHT22;51462;51.422;5.514;2023-09-19T02:22:22;15.80;99.90
24226;DHT22;51462;51.422;5.514;2023-09-19T02:24:48;16.30;99.90
24226;DHT22;51462;51.422;5.514;2023-09-19T02:27:13;16.20;99.90
24226;DHT22;51462;51.422;5.514;2023-09-19T02:29:44;16.10;99.90
24226;DHT22;51462;51.422;5.514;2023-09-19T02:32:09;16.10;99.90
24226;DHT22;51462;51.422;5.514;2023-09-19T02:34:36;16.40;99.90
24226;DHT22;51462;51.422;5.514;2023-09-19T02:37:03;16.50;99.90
24226;DHT22;51462;51.422;5.514;2023-09-19T02:39:30;16.40;99.90
24226;DHT22;51462;51.422;5.514;2023-09-19T02:41:56;16.00;99.90
24226;DHT22;51462;51.422;5.514;2023-09-19T02:44:22;16.20;99.90
24226;DHT22;51462;51.422;5.514;2023-09-19T02:46:49;16.20;99.90
24226;DHT22;51462;51.422;5.514;2023-09-19T02:49:15;16.00;99.90
24226;DHT22;51462;51.422;5.514;2023-09-19T02:51:40;16.00;99.90
24226;DHT22;51462;51.422;5.514;2023-09-19T02:54:06;16.10;99.90
24226;DHT22;51462;51.422;5.514;2023-09-19T02:56:32;15.90;99.90
24226;DHT22;51462;51.422;5.514;2023-09-19T02:58:57;15.80;99.90
24226;DHT22;51462;51.422;5.514;2023-09-19T03:01:23;16.00;99.90
24226;DHT22;51462;51.422;5.514;2023-09-19T03:03:49;16.00;99.90
24226;DHT22;51462;51.422;5.514;2023-09-19T03:06:15;15.80;99.90
24226;DHT22;51462;51.422;5.514;2023-09-19T03:08:41;16.00;99.90
24226;DHT22;51462;51.422;5.514;2023-09-19T03:11:07;15.80;99.90
24226;DHT22;51462;51.422;5.514;2023-09-19T03:13:35;15.90;99.90
24226;DHT22;51462;51.422;5.514;2023-09-19T03:16:06;16.10;99.90
24226;DHT22;51462;51.422;5.514;2023-09-19T03:18:34;16.20;99.90
24226;DHT22;51462;51.422;5.514;2023-09-19T03:20:59;16.20;99.90
24226;DHT22;51462;51.422;5.514;2023-09-19T03:23:26;16.10;99.90
24226;DHT22;51462;51.422;5.514;2023-09-19T03:25:52;16.20;99.90
24226;DHT22;51462;51.422;5.514;2023-09-19T03:28:22;16.30;99.90
24226;DHT22;51462;51.422;5.514;2023-09-19T03:31:00;16.10;99.90
24226;DHT22;51462;51.422;5.514;2023-09-19T03:33:26;15.80;99.90
24226;DHT22;51462;51.422;5.514;2023-09-19T03:35:53;15.80;99.90
24226;DHT22;51462;51.422;5.514;2023-09-19T03:38:19;15.90;99.90
24226;DHT22;51462;51.422;5.514;2023-09-19T03:40:45;16.00;99.90
24226;DHT22;51462;51.422;5.514;2023-09-19T03:43:10;16.00;99.90
24226;DHT22;51462;51.422;5.514;2023-09-19T03:45:36;16.10;99.90
24226;DHT22;51462;51.422;5.514;2023-09-19T03:48:10;15.70;99.90
24226;DHT22;51462;51.422;5.514;2023-09-19T03:50:36;15.80;99.90
24226;DHT22;51462;51.422;5.514;2023-09-19T03:53:02;16.00;99.90
24226;DHT22;51462;51.422;5.514;2023-09-19T03:55:28;16.00;99.90
24226;DHT22;51462;51.422;5.514;2023-09-19T03:57:56;16.00;99.90
24226;DHT22;51462;51.422;5.514;2023-09-19T04:00:21;16.10;99.90
24226;DHT22;51462;51.422;5.514;2023-09-19T04:02:51;15.90;99.90
24226;DHT22;51462;51.422;5.514;2023-09-19T04:05:16;15.90;99.90
24226;DHT22;51462;51.422;5.514;2023-09-19T04:07:42;15.90;99.90
24226;DHT22;51462;51.422;5.514;2023-09-19T04:10:08;15.80;99.90
24226;DHT22;51462;51.422;5.514;2023-09-19T04:12:35;15.90;99.90
24226;DHT22;51462;51.422;5.514;2023-09-19T04:15:01;16.00;99.90
24226;DHT22;51462;51.422;5.514;2023-09-19T04:17:26;15.90;99.90
24226;DHT22;51462;51.422;5.514;2023-09-19T04:19:52;15.80;99.90
24226;DHT22;51462;51.422;5.514;2023-09-19T04:22:18;16.10;99.90
24226;DHT22;51462;51.422;5.514;2023-09-19T04:24:44;16.00;99.90
24226;DHT22;51462;51.422;5.514;2023-09-19T04:27:09;15.70;99.90
24226;DHT22;51462;51.422;5.514;2023-09-19T04:29:35;15.80;99.90
24226;DHT22;51462;51.422;5.514;2023-09-19T04:32:01;15.50;99.90
24226;DHT22;51462;51.422;5.514;2023-09-19T04:34:29;15.90;99.90
24226;DHT22;51462;51.422;5.514;2023-09-19T04:36:56;15.80;99.90
24226;DHT22;51462;51.422;5.514;2023-09-19T04:39:23;15.70;99.90
24226;DHT22;51462;51.422;5.514;2023-09-19T04:41:51;15.70;99.90
24226;DHT22;51462;51.422;5.514;2023-09-19T04:44:17;16.10;99.90
24226;DHT22;51462;51.422;5.514;2023-09-19T04:46:43;15.80;99.90
24226;DHT22;51462;51.422;5.514;2023-09-19T04:49:09;15.70;99.90
24226;DHT22;51462;51.422;5.514;2023-09-19T04:51:35;15.80;99.90
24226;DHT22;51462;51.422;5.514;2023-09-19T04:54:01;15.70;99.90
24226;DHT22;51462;51.422;5.514;2023-09-19T04:56:28;15.80;99.90
24226;DHT22;51462;51.422;5.514;2023-09-19T04:58:59;16.10;99.90
24226;DHT22;51462;51.422;5.514;2023-09-19T05:01:26;16.00;99.90
24226;DHT22;51462;51.422;5.514;2023-09-19T05:03:52;16.00;99.90
24226;DHT22;51462;51.422;5.514;2023-09-19T05:06:21;15.80;99.90
24226;DHT22;51462;51.422;5.514;2023-09-19T05:08:48;15.80;99.90
24226;DHT22;51462;51.422;5.514;2023-09-19T05:11:20;15.70;99.90
24226;DHT22;51462;51.422;5.514;2023-09-19T05:13:50;16.10;99.90
24226;DHT22;51462;51.422;5.514;2023-09-19T05:16:16;16.10;99.90
24226;DHT22;51462;51.422;5.514;2023-09-19T05:18:42;15.80;99.90
24226;DHT22;51462;51.422;5.514;2023-09-19T05:21:08;15.60;99.90
24226;DHT22;51462;51.422;5.514;2023-09-19T05:23:33;15.70;99.90
24226;DHT22;51462;51.422;5.514;2023-09-19T05:25:59;15.80;99.90
24226;DHT22;51462;51.422;5.514;2023-09-19T05:28:25;15.80;99.90
24226;DHT22;51462;51.422;5.514;2023-09-19T05:30:52;15.50;99.90
24226;DHT22;51462;51.422;5.514;2023-09-19T05:33:21;15.60;99.90
24226;DHT22;51462;51.422;5.514;2023-09-19T05:35:50;15.50;99.90
24226;DHT22;51462;51.422;5.514;2023-09-19T05:38:15;15.70;99.90
24226;DHT22;51462;51.422;5.514;2023-09-19T05:40:45;15.60;99.90
24226;DHT22;51462;51.422;5.514;2023-09-19T05:43:10;15.80;99.90
24226;DHT22;51462;51.422;5.514;2023-09-19T05:45:36;15.30;99.90
24226;DHT22;51462;51.422;5.514;2023-09-19T05:48:13;15.30;99.90
24226;DHT22;51462;51.422;5.514;2023-09-19T05:50:41;15.50;99.90
24226;DHT22;51462;51.422;5.514;2023-09-19T05:53:07;15.70;99.90
24226;DHT22;51462;51.422;5.514;2023-09-19T05:55:33;15.60;99.90
24226;DHT22;51462;51.422;5.514;2023-09-19T05:57:59;15.60;99.90
24226;DHT22;51462;51.422;5.514;2023-09-19T06:00:26;15.60;99.90
24226;DHT22;51462;51.422;5.514;2023-09-19T06:02:53;15.50;99.90
24226;DHT22;51462;51.422;5.514;2023-09-19T06:05:19;15.40;99.90
24226;DHT22;51462;51.422;5.514;2023-09-19T06:07:46;15.60;99.90
24226;DHT22;51462;51.422;5.514;2023-09-19T06:10:12;15.80;99.90
24226;DHT22;51462;51.422;5.514;2023-09-19T06:12:42;15.90;99.90
24226;DHT22;51462;51.422;5.514;2023-09-19T06:15:14;15.80;99.90
24226;DHT22;51462;51.422;5.514;2023-09-19T06:17:47;16.10;99.90
24226;DHT22;51462;51.422;5.514;2023-09-19T06:20:14;15.80;99.90
24226;DHT22;51462;51.422;5.514;2023-09-19T06:22:44;15.90;99.90
24226;DHT22;51462;51.422;5.514;2023-09-19T06:25:13;15.90;99.90
24226;DHT22;51462;51.422;5.514;2023-09-19T06:27:45;16.00;99.90
24226;DHT22;51462;51.422;5.514;2023-09-19T06:30:11;16.10;99.90
24226;DHT22;51462;51.422;5.514;2023-09-19T06:32:37;16.10;99.90
24226;DHT22;51462;51.422;5.514;2023-09-19T06:35:03;15.90;99.90
24226;DHT22;51462;51.422;5.514;2023-09-19T06:37:29;15.70;99.90
24226;DHT22;51462;51.422;5.514;2023-09-19T06:39:54;15.70;99.90
24226;DHT22;51462;51.422;5.514;2023-09-19T06:42:20;15.80;99.90
24226;DHT22;51462;51.422;5.514;2023-09-19T06:44:48;15.80;99.90
24226;DHT22;51462;51.422;5.514;2023-09-19T06:47:13;15.70;99.90
24226;DHT22;51462;51.422;5.514;2023-09-19T06:49:42;15.50;99.90
24226;DHT22;51462;51.422;5.514;2023-09-19T06:52:10;15.70;99.90
24226;DHT22;51462;51.422;5.514;2023-09-19T06:54:36;15.80;99.90
24226;DHT22;51462;51.422;5.514;2023-09-19T06:57:01;15.90;99.90
24226;DHT22;51462;51.422;5.514;2023-09-19T06:59:27;16.10;99.90
24226;DHT22;51462;51.422;5.514;2023-09-19T07:01:53;15.90;99.90
24226;DHT22;51462;51.422;5.514;2023-09-19T07:04:18;16.00;99.90
24226;DHT22;51462;51.422;5.514;2023-09-19T07:06:51;15.80;99.90
24226;DHT22;51462;51.422;5.514;2023-09-19T07:09:17;16.00;99.90
24226;DHT22;51462;51.422;5.514;2023-09-19T07:11:45;15.90;99.90
24226;DHT22;51462;51.422;5.514;2023-09-19T07:14:11;16.40;99.90
24226;DHT22;51462;51.422;5.514;2023-09-19T07:16:37;16.30;99.90
24226;DHT22;51462;51.422;5.514;2023-09-19T07:19:05;16.20;99.90
24226;DHT22;51462;51.422;5.514;2023-09-19T07:21:30;16.30;99.90
24226;DHT22;51462;51.422;5.514;2023-09-19T07:23:59;15.90;99.90
24226;DHT22;51462;51.422;5.514;2023-09-19T07:26:26;15.90;99.90
24226;DHT22;51462;51.422;5.514;2023-09-19T07:28:52;16.10;99.90
24226;DHT22;51462;51.422;5.514;2023-09-19T07:31:18;16.20;99.90
24226;DHT22;51462;51.422;5.514;2023-09-19T07:33:44;16.30;99.90
24226;DHT22;51462;51.422;5.514;2023-09-19T07:36:11;16.20;99.90
24226;DHT22;51462;51.422;5.514;2023-09-19T07:38:39;16.30;99.90
24226;DHT22;51462;51.422;5.514;2023-09-19T07:41:05;16.40;99.90
24226;DHT22;51462;51.422;5.514;2023-09-19T07:43:30;16.30;99.90
24226;DHT22;51462;51.422;5.514;2023-09-19T07:45:57;16.40;99.90
24226;DHT22;51462;51.422;5.514;2023-09-19T07:48:22;16.30;99.90
24226;DHT22;51462;51.422;5.514;2023-09-19T07:50:49;16.30;99.90
24226;DHT22;51462;51.422;5.514;2023-09-19T07:53:15;16.30;99.90
24226;DHT22;51462;51.422;5.514;2023-09-19T07:55:43;16.30;99.90
24226;DHT22;51462;51.422;5.514;2023-09-19T07:58:09;16.50;99.90
24226;DHT22;51462;51.422;5.514;2023-09-19T08:00:34;16.50;99.90
24226;DHT22;51462;51.422;5.514;2023-09-19T08:03:00;16.40;99.90
24226;DHT22;51462;51.422;5.514;2023-09-19T08:05:26;16.60;99.90
24226;DHT22;51462;51.422;5.514;2023-09-19T08:07:53;16.70;99.90
24226;DHT22;51462;51.422;5.514;2023-09-19T08:10:19;16.60;99.90
24226;DHT22;51462;51.422;5.514;2023-09-19T08:12:47;16.60;99.90
24226;DHT22;51462;51.422;5.514;2023-09-19T08:15:17;16.50;99.90
24226;DHT22;51462;51.422;5.514;2023-09-19T08:17:43;16.60;99.90
24226;DHT22;51462;51.422;5.514;2023-09-19T08:20:09;16.70;99.90
24226;DHT22;51462;51.422;5.514;2023-09-19T08:22:48;16.60;99.90
24226;DHT22;51462;51.422;5.514;2023-09-19T08:25:17;16.60;99.90
24226;DHT22;51462;51.422;5.514;2023-09-19T08:27:43;16.80;99.90
24226;DHT22;51462;51.422;5.514;2023-09-19T08:30:14;16.90;99.90
24226;DHT22;51462;51.422;5.514;2023-09-19T08:32:40;16.80;99.90
24226;DHT22;51462;51.422;5.514;2023-09-19T08:35:08;16.80;99.90
24226;DHT22;51462;51.422;5.514;2023-09-19T08:37:34;16.80;99.90
24226;DHT22;51462;51.422;5.514;2023-09-19T08:40:00;16.90;99.90
24226;DHT22;51462;51.422;5.514;2023-09-19T08:42:26;17.20;99.90
24226;DHT22;51462;51.422;5.514;2023-09-19T08:44:52;17.10;99.90
24226;DHT22;51462;51.422;5.514;2023-09-19T08:47:25;17.00;99.90
24226;DHT22;51462;51.422;5.514;2023-09-19T08:50:03;17.00;99.90
24226;DHT22;51462;51.422;5.514;2023-09-19T08:52:43;17.00;99.90
24226;DHT22;51462;51.422;5.514;2023-09-19T08:55:12;17.00;99.90
24226;DHT22;51462;51.422;5.514;2023-09-19T08:57:39;16.90;99.90
24226;DHT22;51462;51.422;5.514;2023-09-19T09:00:08;16.80;99.90
24226;DHT22;51462;51.422;5.514;2023-09-19T09:02:40;17.00;99.90
24226;DHT22;51462;51.422;5.514;2023-09-19T09:05:08;17.00;99.90
24226;DHT22;51462;51.422;5.514;2023-09-19T09:07:36;17.20;99.90
24226;DHT22;51462;51.422;5.514;2023-09-19T09:10:03;17.10;99.90
24226;DHT22;51462;51.422;5.514;2023-09-19T09:12:29;17.10;99.90
24226;DHT22;51462;51.422;5.514;2023-09-19T09:14:55;17.10;99.90
24226;DHT22;51462;51.422;5.514;2023-09-19T09:17:25;17.20;99.90
24226;DHT22;51462;51.422;5.514;2023-09-19T09:19:54;17.40;99.90
24226;DHT22;51462;51.422;5.514;2023-09-19T09:22:20;17.40;99.90
24226;DHT22;51462;51.422;5.514;2023-09-19T09:24:58;17.40;99.90
24226;DHT22;51462;51.422;5.514;2023-09-19T09:27:26;17.50;99.90
24226;DHT22;51462;51.422;5.514;2023-09-19T09:29:52;17.60;99.90
24226;DHT22;51462;51.422;5.514;2023-09-19T09:32:28;17.60;99.90
24226;DHT22;51462;51.422;5.514;2023-09-19T09:34:55;17.70;99.90
24226;DHT22;51462;51.422;5.514;2023-09-19T09:37:22;17.80;99.90
24226;DHT22;51462;51.422;5.514;2023-09-19T09:39:54;17.80;99.90
24226;DHT22;51462;51.422;5.514;2023-09-19T09:45:14;17.80;99.90
24226;DHT22;51462;51.422;5.514;2023-09-19T09:47:47;17.90;99.90
24226;DHT22;51462;51.422;5.514;2023-09-19T09:50:30;18.00;99.90
24226;DHT22;51462;51.422;5.514;2023-09-19T09:53:29;17.90;99.90
24226;DHT22;51462;51.422;5.514;2023-09-19T09:56:02;17.90;99.90
24226;DHT22;51462;51.422;5.514;2023-09-19T09:58:32;18.00;99.90
24226;DHT22;51462;51.422;5.514;2023-09-19T10:00:59;18.00;99.90
24226;DHT22;51462;51.422;5.514;2023-09-19T10:03:36;18.10;99.90
24226;DHT22;51462;51.422;5.514;2023-09-19T10:06:11;18.20;99.90
24226;DHT22;51462;51.422;5.514;2023-09-19T10:09:06;18.30;99.90
24226;DHT22;51462;51.422;5.514;2023-09-19T10:12:03;18.30;99.90
24226;DHT22;51462;51.422;5.514;2023-09-19T10:14:33;18.30;99.90
24226;DHT22;51462;51.422;5.514;2023-09-19T10:17:06;18.40;99.90
24226;DHT22;51462;51.422;5.514;2023-09-19T10:19:46;18.30;99.90
24226;DHT22;51462;51.422;5.514;2023-09-19T10:22:14;18.30;99.90
24226;DHT22;51462;51.422;5.514;2023-09-19T10:24:47;18.50;99.90
24226;DHT22;51462;51.422;5.514;2023-09-19T10:27:13;18.60;99.90
24226;DHT22;51462;51.422;5.514;2023-09-19T10:29:45;18.50;99.90
24226;DHT22;51462;51.422;5.514;2023-09-19T10:32:15;18.60;99.90
24226;DHT22;51462;51.422;5.514;2023-09-19T10:34:46;18.60;99.90
24226;DHT22;51462;51.422;5.514;2023-09-19T10:37:13;18.60;99.90
24226;DHT22;51462;51.422;5.514;2023-09-19T10:39:40;18.70;99.90
24226;DHT22;51462;51.422;5.514;2023-09-19T10:42:07;18.80;99.90
24226;DHT22;51462;51.422;5.514;2023-09-19T10:44:38;18.80;99.90
24226;DHT22;51462;51.422;5.514;2023-09-19T10:47:07;18.90;99.90
24226;DHT22;51462;51.422;5.514;2023-09-19T10:49:34;19.00;99.90
24226;DHT22;51462;51.422;5.514;2023-09-19T10:52:01;19.10;99.90
24226;DHT22;51462;51.422;5.514;2023-09-19T10:54:33;19.30;99.90
24226;DHT22;51462;51.422;5.514;2023-09-19T10:57:02;19.40;99.90
24226;DHT22;51462;51.422;5.514;2023-09-19T10:59:30;19.30;99.90
24226;DHT22;51462;51.422;5.514;2023-09-19T11:02:16;19.30;99.90
24226;DHT22;51462;51.422;5.514;2023-09-19T11:04:42;19.40;99.90
24226;DHT22;51462;51.422;5.514;2023-09-19T11:07:11;19.40;99.90
24226;DHT22;51462;51.422;5.514;2023-09-19T11:12:11;19.50;99.90
24226;DHT22;51462;51.422;5.514;2023-09-19T11:14:40;19.70;99.90
24226;DHT22;51462;51.422;5.514;2023-09-19T11:30:49;20.10;99.90
24226;DHT22;51462;51.422;5.514;2023-09-19T11:33:16;20.10;99.90
24226;DHT22;51462;51.422;5.514;2023-09-19T11:36:11;20.20;99.90
24226;DHT22;51462;51.422;5.514;2023-09-19T11:46:55;20.30;99.90
24226;DHT22;51462;51.422;5.514;2023-09-19T11:49:31;20.60;99.90
24226;DHT22;51462;51.422;5.514;2023-09-19T11:52:02;20.50;99.90
24226;DHT22;51462;51.422;5.514;2023-09-19T11:54:31;20.70;99.90
24226;DHT22;51462;51.422;5.514;2023-09-19T11:56:58;20.80;99.90
24226;DHT22;51462;51.422;5.514;2023-09-19T11:59:29;20.60;99.90
24226;DHT22;51462;51.422;5.514;2023-09-19T12:02:05;20.80;99.90
24226;DHT22;51462;51.422;5.514;2023-09-19T12:04:40;20.90;99.90
24226;DHT22;51462;51.422;5.514;2023-09-19T12:07:08;21.20;99.90
24226;DHT22;51462;51.422;5.514;2023-09-19T12:09:38;21.40;99.90
24226;DHT22;51462;51.422;5.514;2023-09-19T12:12:04;21.30;99.90
24226;DHT22;51462;51.422;5.514;2023-09-19T12:14:30;21.10;99.90
24226;DHT22;51462;51.422;5.514;2023-09-19T12:16:57;21.00;99.90
24226;DHT22;51462;51.422;5.514;2023-09-19T12:19:26;21.00;99.90
24226;DHT22;51462;51.422;5.514;2023-09-19T12:22:02;21.20;99.90
24226;DHT22;51462;51.422;5.514;2023-09-19T12:24:31;21.20;99.90
24226;DHT22;51462;51.422;5.514;2023-09-19T12:27:05;21.10;99.90
24226;DHT22;51462;51.422;5.514;2023-09-19T12:29:32;21.40;99.90
24226;DHT22;51462;51.422;5.514;2023-09-19T12:31:59;21.40;99.90
24226;DHT22;51462;51.422;5.514;2023-09-19T12:34:30;21.60;99.90
24226;DHT22;51462;51.422;5.514;2023-09-19T12:37:15;21.30;99.90
24226;DHT22;51462;51.422;5.514;2023-09-19T12:39:46;21.00;99.90
24226;DHT22;51462;51.422;5.514;2023-09-19T12:42:18;20.90;99.90
24226;DHT22;51462;51.422;5.514;2023-09-19T12:44:46;20.90;99.90
24226;DHT22;51462;51.422;5.514;2023-09-19T12:47:16;20.90;99.90
24226;DHT22;51462;51.422;5.514;2023-09-19T12:50:07;20.80;99.90
24226;DHT22;51462;51.422;5.514;2023-09-19T12:52:37;20.70;99.90
24226;DHT22;51462;51.422;5.514;2023-09-19T12:55:04;20.60;99.90
24226;DHT22;51462;51.422;5.514;2023-09-19T12:57:32;20.50;99.90
24226;DHT22;51462;51.422;5.514;2023-09-19T13:00:03;20.60;99.90
24226;DHT22;51462;51.422;5.514;2023-09-19T13:02:36;20.80;99.90
24226;DHT22;51462;51.422;5.514;2023-09-19T13:05:03;20.80;99.90
24226;DHT22;51462;51.422;5.514;2023-09-19T13:07:43;20.80;99.90
24226;DHT22;51462;51.422;5.514;2023-09-19T13:10:09;20.70;99.90
24226;DHT22;51462;51.422;5.514;2023-09-19T13:12:36;20.90;99.90
24226;DHT22;51462;51.422;5.514;2023-09-19T13:15:11;20.90;99.90
24226;DHT22;51462;51.422;5.514;2023-09-19T13:17:48;20.90;99.90
24226;DHT22;51462;51.422;5.514;2023-09-19T13:20:26;20.90;99.90
24226;DHT22;51462;51.422;5.514;2023-09-19T13:22:57;21.10;99.90
24226;DHT22;51462;51.422;5.514;2023-09-19T13:25:34;21.00;99.90
24226;DHT22;51462;51.422;5.514;2023-09-19T13:28:00;20.90;99.90
24226;DHT22;51462;51.422;5.514;2023-09-19T13:30:30;20.80;99.90
24226;DHT22;51462;51.422;5.514;2023-09-19T13:33:10;20.80;99.90
24226;DHT22;51462;51.422;5.514;2023-09-19T13:35:38;20.70;99.90
24226;DHT22;51462;51.422;5.514;2023-09-19T13:38:06;20.50;99.90
24226;DHT22;51462;51.422;5.514;2023-09-19T13:40:35;20.50;99.90
24226;DHT22;51462;51.422;5.514;2023-09-19T13:43:01;20.50;99.90
24226;DHT22;51462;51.422;5.514;2023-09-19T13:45:26;20.50;99.90
24226;DHT22;51462;51.422;5.514;2023-09-19T13:47:56;20.40;99.90
24226;DHT22;51462;51.422;5.514;2023-09-19T13:50:21;20.50;99.90
24226;DHT22;51462;51.422;5.514;2023-09-19T13:52:50;20.50;99.90
24226;DHT22;51462;51.422;5.514;2023-09-19T13:55:17;20.50;99.90
24226;DHT22;51462;51.422;5.514;2023-09-19T13:57:46;20.40;99.90
24226;DHT22;51462;51.422;5.514;2023-09-19T14:00:12;20.30;99.90
24226;DHT22;51462;51.422;5.514;2023-09-19T14:02:41;20.30;99.90
24226;DHT22;51462;51.422;5.514;2023-09-19T14:05:10;20.30;99.90
24226;DHT22;51462;51.422;5.514;2023-09-19T14:07:38;20.30;99.90
24226;DHT22;51462;51.422;5.514;2023-09-19T14:10:04;20.30;99.90
24226;DHT22;51462;51.422;5.514;2023-09-19T14:12:33;20.30;99.90
24226;DHT22;51462;51.422;5.514;2023-09-19T14:15:00;20.20;99.90
24226;DHT22;51462;51.422;5.514;2023-09-19T14:17:25;20.20;99.90
24226;DHT22;51462;51.422;5.514;2023-09-19T14:19:52;20.30;99.90
24226;DHT22;51462;51.422;5.514;2023-09-19T14:22:17;20.20;99.90
24226;DHT22;51462;51.422;5.514;2023-09-19T14:24:43;20.30;99.90
24226;DHT22;51462;51.422;5.514;2023-09-19T14:27:09;20.30;99.90
24226;DHT22;51462;51.422;5.514;2023-09-19T14:29:35;20.30;99.90
24226;DHT22;51462;51.422;5.514;2023-09-19T14:32:01;20.40;99.90
24226;DHT22;51462;51.422;5.514;2023-09-19T14:34:27;21.00;99.90
24226;DHT22;51462;51.422;5.514;2023-09-19T14:36:53;21.20;99.90
24226;DHT22;51462;51.422;5.514;2023-09-19T14:39:19;21.50;99.90
24226;DHT22;51462;51.422;5.514;2023-09-19T14:41:45;21.90;99.90
24226;DHT22;51462;51.422;5.514;2023-09-19T14:44:11;22.00;99.90
24226;DHT22;51462;51.422;5.514;2023-09-19T14:46:36;22.00;99.90
24226;DHT22;51462;51.422;5.514;2023-09-19T14:49:02;21.50;99.90
24226;DHT22;51462;51.422;5.514;2023-09-19T14:51:30;21.50;99.90
24226;DHT22;51462;51.422;5.514;2023-09-19T14:53:56;21.40;99.90
24226;DHT22;51462;51.422;5.514;2023-09-19T14:56:23;21.20;99.90
24226;DHT22;51462;51.422;5.514;2023-09-19T14:58:50;21.00;99.90
24226;DHT22;51462;51.422;5.514;2023-09-19T15:01:16;20.80;99.90
24226;DHT22;51462;51.422;5.514;2023-09-19T15:03:42;20.80;99.90
24226;DHT22;51462;51.422;5.514;2023-09-19T15:06:12;20.70;99.90
24226;DHT22;51462;51.422;5.514;2023-09-19T15:08:40;20.60;99.90
24226;DHT22;51462;51.422;5.514;2023-09-19T15:11:06;20.50;99.90
24226;DHT22;51462;51.422;5.514;2023-09-19T15:13:33;20.60;99.90
24226;DHT22;51462;51.422;5.514;2023-09-19T15:16:03;20.50;99.90
24226;DHT22;51462;51.422;5.514;2023-09-19T15:18:30;20.50;99.90
24226;DHT22;51462;51.422;5.514;2023-09-19T15:20:56;20.50;99.90
24226;DHT22;51462;51.422;5.514;2023-09-19T15:23:22;20.80;99.90
24226;DHT22;51462;51.422;5.514;2023-09-19T15:25:49;20.70;99.90
24226;DHT22;51462;51.422;5.514;2023-09-19T15:28:14;20.60;99.90
24226;DHT22;51462;51.422;5.514;2023-09-19T15:30:40;20.70;99.90
24226;DHT22;51462;51.422;5.514;2023-09-19T15:33:06;20.70;99.90
24226;DHT22;51462;51.422;5.514;2023-09-19T15:35:32;20.80;99.90
24226;DHT22;51462;51.422;5.514;2023-09-19T15:37:57;20.70;99.90
24226;DHT22;51462;51.422;5.514;2023-09-19T15:40:26;20.70;99.90
24226;DHT22;51462;51.422;5.514;2023-09-19T15:42:54;20.60;99.90
24226;DHT22;51462;51.422;5.514;2023-09-19T15:45:19;20.50;99.90
24226;DHT22;51462;51.422;5.514;2023-09-19T15:47:45;20.50;99.90
24226;DHT22;51462;51.422;5.514;2023-09-19T15:50:11;20.50;99.90
24226;DHT22;51462;51.422;5.514;2023-09-19T15:52:39;20.30;99.90
24226;DHT22;51462;51.422;5.514;2023-09-19T15:55:06;20.20;99.90
24226;DHT22;51462;51.422;5.514;2023-09-19T15:57:38;20.30;99.90
24226;DHT22;51462;51.422;5.514;2023-09-19T16:00:04;20.20;99.90
24226;DHT22;51462;51.422;5.514;2023-09-19T16:02:38;20.20;99.90
24226;DHT22;51462;51.422;5.514;2023-09-19T16:05:04;20.10;99.90
24226;DHT22;51462;51.422;5.514;2023-09-19T16:07:33;20.00;99.90
24226;DHT22;51462;51.422;5.514;2023-09-19T16:10:02;20.00;99.90
24226;DHT22;51462;51.422;5.514;2023-09-19T16:12:28;20.00;99.90
24226;DHT22;51462;51.422;5.514;2023-09-19T16:14:55;20.00;99.90
24226;DHT22;51462;51.422;5.514;2023-09-19T16:17:21;20.00;99.90
24226;DHT22;51462;51.422;5.514;2023-09-19T16:19:47;19.90;99.90
24226;DHT22;51462;51.422;5.514;2023-09-19T16:22:12;20.00;99.90